sensor_id;sensor_type;location;lat;lon;timestamp;pressure;altitude;pressure_sealevel;temperature;humidity
40502;BME280;29631;49.168;9.848;2023-03-02T00:01:06;96774.66;;;9.01;63.43
40502;BME280;29631;49.168;9.848;2023-03-02T00:03:35;96769.19;;;9.03;63.60
40502;BME280;29631;49.168;9.848;2023-03-02T00:06:03;96763.91;;;8.96;63.06
40502;BME280;29631;49.168;9.848;2023-03-02T00:08:29;96772.41;;;8.98;63.41
40502;BME280;29631;49.168;9.848;2023-03-02T00:10:56;96766.13;;;8.99;62.89
40502;BME280;29631;49.168;9.848;2023-03-02T00:13:23;96763.91;;;8.96;62.97
40502;BME280;29631;49.168;9.848;2023-03-02T00:15:49;96789.84;;;9.06;62.64
40502;BME280;29631;49.168;9.848;2023-03-02T00:18:14;96761.84;;;8.92;62.97
40502;BME280;29631;49.168;9.848;2023-03-02T00:20:40;96765.91;;;8.94;62.89
40502;BME280;29631;49.168;9.848;2023-03-02T00:23:06;96752.09;;;8.86;62.98
40502;BME280;29631;49.168;9.848;2023-03-02T00:25:31;96758.78;;;8.88;63.04
40502;BME280;29631;49.168;9.848;2023-03-02T00:27:57;96755.34;;;8.88;63.79
40502;BME280;29631;49.168;9.848;2023-03-02T00:30:23;96772.38;;;8.92;63.30
40502;BME280;29631;49.168;9.848;2023-03-02T00:32:49;96769.94;;;8.90;63.44
40502;BME280;29631;49.168;9.848;2023-03-02T00:35:14;96754.06;;;8.77;63.53
40502;BME280;29631;49.168;9.848;2023-03-02T00:37:40;96760.97;;;8.78;63.74
40502;BME280;29631;49.168;9.848;2023-03-02T00:40:07;96750.38;;;8.72;63.59
40502;BME280;29631;49.168;9.848;2023-03-02T00:42:37;96764.59;;;8.77;63.80
40502;BME280;29631;49.168;9.848;2023-03-02T00:45:04;96784.44;;;8.86;64.29
40502;BME280;29631;49.168;9.848;2023-03-02T00:47:33;96756.28;;;8.80;63.72
40502;BME280;29631;49.168;9.848;2023-03-02T00:50:00;96750.44;;;8.78;63.37
40502;BME280;29631;49.168;9.848;2023-03-02T00:52:27;96747.63;;;8.80;63.43
40502;BME280;29631;49.168;9.848;2023-03-02T00:54:53;96726.88;;;8.64;63.13
40502;BME280;29631;49.168;9.848;2023-03-02T00:57:19;96743.91;;;8.74;64.15
40502;BME280;29631;49.168;9.848;2023-03-02T00:59:44;96755.31;;;8.81;63.13
40502;BME280;29631;49.168;9.848;2023-03-02T01:02:10;96740.28;;;8.75;63.68
40502;BME280;29631;49.168;9.848;2023-03-02T01:04:39;96734.59;;;8.72;63.67
40502;BME280;29631;49.168;9.848;2023-03-02T01:07:12;96730.56;;;8.69;64.14
40502;BME280;29631;49.168;9.848;2023-03-02T01:09:41;96741.09;;;8.76;64.34
40502;BME280;29631;49.168;9.848;2023-03-02T01:12:07;96727.28;;;8.67;63.64
40502;BME280;29631;49.168;9.848;2023-03-02T01:14:37;96721.84;;;8.69;63.51
40502;BME280;29631;49.168;9.848;2023-03-02T01:17:04;96728.13;;;8.68;63.87
40502;BME280;29631;49.168;9.848;2023-03-02T01:19:31;96698.94;;;8.57;64.05
40502;BME280;29631;49.168;9.848;2023-03-02T01:21:57;96711.53;;;8.67;63.81
40502;BME280;29631;49.168;9.848;2023-03-02T01:24:23;96712.53;;;8.66;63.16
40502;BME280;29631;49.168;9.848;2023-03-02T01:26:48;96714.56;;;8.65;64.10
40502;BME280;29631;49.168;9.848;2023-03-02T01:29:14;96709.09;;;8.66;64.23
40502;BME280;29631;49.168;9.848;2023-03-02T01:31:40;96682.66;;;8.47;64.11
40502;BME280;29631;49.168;9.848;2023-03-02T01:34:06;96712.28;;;8.62;63.64
40502;BME280;29631;49.168;9.848;2023-03-02T01:36:31;96702.56;;;8.56;64.01
40502;BME280;29631;49.168;9.848;2023-03-02T01:38:57;96681.06;;;8.46;63.95
40502;BME280;29631;49.168;9.848;2023-03-02T01:41:23;96705.97;;;8.56;64.30
40502;BME280;29631;49.168;9.848;2023-03-02T01:43:49;96707.88;;;8.62;63.61
40502;BME280;29631;49.168;9.848;2023-03-02T01:51:22;96679.88;;;8.48;63.83
40502;BME280;29631;49.168;9.848;2023-03-02T01:53:53;96679.88;;;8.48;63.47
40502;BME280;29631;49.168;9.848;2023-03-02T01:56:24;96684.31;;;8.48;63.90
40502;BME280;29631;49.168;9.848;2023-03-02T01:58:57;96688.94;;;8.46;63.90
40502;BME280;29631;49.168;9.848;2023-03-02T02:01:28;96676.81;;;8.45;64.36
40502;BME280;29631;49.168;9.848;2023-03-02T02:03:55;96668.88;;;8.38;63.73
40502;BME280;29631;49.168;9.848;2023-03-02T02:06:56;96688.19;;;8.52;64.14
40502;BME280;29631;49.168;9.848;2023-03-02T02:09:24;96679.69;;;8.50;64.47
40502;BME280;29631;49.168;9.848;2023-03-02T02:11:51;96672.56;;;8.44;64.12
40502;BME280;29631;49.168;9.848;2023-03-02T02:14:17;96650.81;;;8.29;63.98
40502;BME280;29631;49.168;9.848;2023-03-02T02:16:43;96677.06;;;8.50;64.61
40502;BME280;29631;49.168;9.848;2023-03-02T02:19:54;96674.66;;;8.55;64.32
40502;BME280;29631;49.168;9.848;2023-03-02T02:27:54;96659.66;;;8.49;64.54
40502;BME280;29631;49.168;9.848;2023-03-02T02:30:21;96653.97;;;8.45;64.68
40502;BME280;29631;49.168;9.848;2023-03-02T02:32:48;96658.88;;;8.48;63.91
40502;BME280;29631;49.168;9.848;2023-03-02T02:35:20;96655.41;;;8.48;64.24
40502;BME280;29631;49.168;9.848;2023-03-02T02:38:00;96667.78;;;8.54;64.36
40502;BME280;29631;49.168;9.848;2023-03-02T02:40:51;96666.78;;;8.55;64.68
40502;BME280;29631;49.168;9.848;2023-03-02T02:43:20;96639.06;;;8.46;64.10
40502;BME280;29631;49.168;9.848;2023-03-02T02:45:50;96664.97;;;8.55;64.58
40502;BME280;29631;49.168;9.848;2023-03-02T02:48:21;96662.53;;;8.54;64.75
40502;BME280;29631;49.168;9.848;2023-03-02T02:50:48;96660.66;;;8.48;64.79
40502;BME280;29631;49.168;9.848;2023-03-02T02:53:21;96644.66;;;8.43;64.88
40502;BME280;29631;49.168;9.848;2023-03-02T02:55:53;96662.53;;;8.54;64.73
40502;BME280;29631;49.168;9.848;2023-03-02T02:58:33;96659.28;;;8.52;65.10
40502;BME280;29631;49.168;9.848;2023-03-02T03:01:00;96664.47;;;8.45;64.10
40502;BME280;29631;49.168;9.848;2023-03-02T03:03:30;96644.22;;;8.33;64.23
40502;BME280;29631;49.168;9.848;2023-03-02T03:05:59;96666.09;;;8.40;64.89
40502;BME280;29631;49.168;9.848;2023-03-02T03:11:07;96649.19;;;8.28;65.02
40502;BME280;29631;49.168;9.848;2023-03-02T03:13:33;96672.13;;;8.40;64.30
40502;BME280;29631;49.168;9.848;2023-03-02T03:16:00;96650.81;;;8.29;64.89
40502;BME280;29631;49.168;9.848;2023-03-02T03:18:27;96653.44;;;8.29;64.30
40502;BME280;29631;49.168;9.848;2023-03-02T03:20:55;96652.22;;;8.25;65.00
40502;BME280;29631;49.168;9.848;2023-03-02T03:23:21;96663.38;;;8.33;64.87
40502;BME280;29631;49.168;9.848;2023-03-02T03:25:47;96638.84;;;8.20;65.20
40502;BME280;29631;49.168;9.848;2023-03-02T03:28:13;96637.59;;;8.16;64.88
40502;BME280;29631;49.168;9.848;2023-03-02T03:30:38;96659.53;;;8.29;65.00
40502;BME280;29631;49.168;9.848;2023-03-02T03:33:04;96646.91;;;8.18;64.69
40502;BME280;29631;49.168;9.848;2023-03-02T03:35:30;96651.59;;;8.23;65.34
40502;BME280;29631;49.168;9.848;2023-03-02T03:37:56;96634.34;;;8.14;64.97
40502;BME280;29631;49.168;9.848;2023-03-02T03:40:21;96649.38;;;8.20;64.86
40502;BME280;29631;49.168;9.848;2023-03-02T03:42:47;96652.59;;;8.22;65.76
40502;BME280;29631;49.168;9.848;2023-03-02T03:45:13;96640.41;;;8.14;64.85
40502;BME280;29631;49.168;9.848;2023-03-02T03:47:39;96649.25;;;8.13;64.98
40502;BME280;29631;49.168;9.848;2023-03-02T03:50:05;96650.72;;;8.16;65.83
40502;BME280;29631;49.168;9.848;2023-03-02T03:52:30;96641.94;;;8.09;65.62
40502;BME280;29631;49.168;9.848;2023-03-02T03:54:58;96646.63;;;8.13;64.89
40502;BME280;29631;49.168;9.848;2023-03-02T03:57:26;96663.09;;;8.22;64.88
40502;BME280;29631;49.168;9.848;2023-03-02T03:59:53;96650.16;;;8.20;65.27
40502;BME280;29631;49.168;9.848;2023-03-02T04:02:19;96659.03;;;8.19;65.12
40502;BME280;29631;49.168;9.848;2023-03-02T04:04:45;96652.97;;;8.19;65.39
40502;BME280;29631;49.168;9.848;2023-03-02T04:07:12;96658.84;;;8.21;65.67
40502;BME280;29631;49.168;9.848;2023-03-02T04:09:39;96653.72;;;8.13;65.57
40502;BME280;29631;49.168;9.848;2023-03-02T04:12:06;96649.72;;;8.17;65.72
40502;BME280;29631;49.168;9.848;2023-03-02T04:14:33;96671.97;;;8.21;65.82
40502;BME280;29631;49.168;9.848;2023-03-02T04:16:59;96666.34;;;8.24;65.52
40502;BME280;29631;49.168;9.848;2023-03-02T04:19:24;96622.09;;;8.00;65.24
40502;BME280;29631;49.168;9.848;2023-03-02T04:21:53;96643.97;;;8.07;65.83
40502;BME280;29631;49.168;9.848;2023-03-02T04:24:20;96655.50;;;8.12;66.06
40502;BME280;29631;49.168;9.848;2023-03-02T04:26:47;96647.84;;;8.11;65.73
40502;BME280;29631;49.168;9.848;2023-03-02T04:29:14;96660.22;;;8.17;66.17
40502;BME280;29631;49.168;9.848;2023-03-02T04:31:40;96650.09;;;8.14;65.29
40502;BME280;29631;49.168;9.848;2023-03-02T04:34:07;96654.34;;;8.15;66.09
40502;BME280;29631;49.168;9.848;2023-03-02T04:36:37;96655.81;;;8.17;65.24
40502;BME280;29631;49.168;9.848;2023-03-02T04:39:05;96618.41;;;7.94;66.15
40502;BME280;29631;49.168;9.848;2023-03-02T04:41:31;96650.47;;;8.11;65.38
40502;BME280;29631;49.168;9.848;2023-03-02T04:43:57;96662.84;;;8.17;65.40
40502;BME280;29631;49.168;9.848;2023-03-02T04:46:25;96655.19;;;8.15;66.25
40502;BME280;29631;49.168;9.848;2023-03-02T04:48:52;96648.47;;;8.13;65.21
40502;BME280;29631;49.168;9.848;2023-03-02T04:51:25;96661.06;;;8.17;66.18
40502;BME280;29631;49.168;9.848;2023-03-02T04:53:54;96642.22;;;8.14;65.58
40502;BME280;29631;49.168;9.848;2023-03-02T04:56:21;96636.09;;;8.07;65.66
40502;BME280;29631;49.168;9.848;2023-03-02T04:58:47;96641.22;;;8.15;65.86
40502;BME280;29631;49.168;9.848;2023-03-02T05:01:15;96643.22;;;8.13;65.29
40502;BME280;29631;49.168;9.848;2023-03-02T05:03:41;96638.31;;;8.10;65.55
40502;BME280;29631;49.168;9.848;2023-03-02T05:06:07;96648.81;;;8.10;66.07
40502;BME280;29631;49.168;9.848;2023-03-02T05:08:33;96634.66;;;8.04;66.21
40502;BME280;29631;49.168;9.848;2023-03-02T05:10:59;96632.22;;;8.03;65.91
40502;BME280;29631;49.168;9.848;2023-03-02T05:13:25;96625.72;;;7.99;65.71
40502;BME280;29631;49.168;9.848;2023-03-02T05:15:51;96635.47;;;8.05;66.13
40502;BME280;29631;49.168;9.848;2023-03-02T05:18:19;96636.22;;;7.99;65.93
40502;BME280;29631;49.168;9.848;2023-03-02T05:20:45;96601.38;;;7.84;65.68
40502;BME280;29631;49.168;9.848;2023-03-02T05:23:14;96624.09;;;7.98;66.39
40502;BME280;29631;49.168;9.848;2023-03-02T05:25:50;96635.81;;;8.02;65.98
40502;BME280;29631;49.168;9.848;2023-03-02T05:28:17;96644.56;;;8.09;66.56
40502;BME280;29631;49.168;9.848;2023-03-02T05:30:43;96636.47;;;8.04;66.03
40502;BME280;29631;49.168;9.848;2023-03-02T05:33:09;96638.44;;;8.02;66.09
40502;BME280;29631;49.168;9.848;2023-03-02T05:35:35;96650.16;;;7.99;66.00
40502;BME280;29631;49.168;9.848;2023-03-02T05:38:01;96649.66;;;8.10;66.53
40502;BME280;29631;49.168;9.848;2023-03-02T05:40:27;96639.47;;;8.01;66.14
40502;BME280;29631;49.168;9.848;2023-03-02T05:42:52;96633.16;;;7.95;65.81
40502;BME280;29631;49.168;9.848;2023-03-02T05:45:28;96643.91;;;8.00;65.90
40502;BME280;29631;49.168;9.848;2023-03-02T05:47:54;96642.09;;;8.01;66.01
40502;BME280;29631;49.168;9.848;2023-03-02T05:50:20;96649.59;;;8.04;66.43
40502;BME280;29631;49.168;9.848;2023-03-02T05:52:46;96653.63;;;8.06;65.95
40502;BME280;29631;49.168;9.848;2023-03-02T05:55:14;96654.84;;;8.04;66.32
40502;BME280;29631;49.168;9.848;2023-03-02T05:57:40;96641.47;;;7.99;66.37
40502;BME280;29631;49.168;9.848;2023-03-02T06:00:10;96665.84;;;8.14;65.67
40502;BME280;29631;49.168;9.848;2023-03-02T06:02:36;96655.72;;;8.11;66.00
40502;BME280;29631;49.168;9.848;2023-03-02T06:05:17;96643.34;;;8.05;66.43
40502;BME280;29631;49.168;9.848;2023-03-02T06:07:43;96649.22;;;8.07;66.51
40502;BME280;29631;49.168;9.848;2023-03-02T06:10:11;96663.38;;;8.12;66.39
40502;BME280;29631;49.168;9.848;2023-03-02T06:12:37;96667.84;;;8.12;65.72
40502;BME280;29631;49.168;9.848;2023-03-02T06:15:05;96663.22;;;8.14;65.78
40502;BME280;29631;49.168;9.848;2023-03-02T06:17:31;96669.09;;;8.16;65.68
40502;BME280;29631;49.168;9.848;2023-03-02T06:19:57;96677.19;;;8.14;65.90
40502;BME280;29631;49.168;9.848;2023-03-02T06:22:23;96661.53;;;8.06;65.88
40502;BME280;29631;49.168;9.848;2023-03-02T06:24:49;96684.50;;;8.19;66.27
40502;BME280;29631;49.168;9.848;2023-03-02T06:27:15;96665.47;;;8.17;66.00
40502;BME280;29631;49.168;9.848;2023-03-02T06:29:41;96662.78;;;8.10;65.97
40502;BME280;29631;49.168;9.848;2023-03-02T06:32:06;96686.72;;;8.22;66.21
40502;BME280;29631;49.168;9.848;2023-03-02T06:34:32;96672.09;;;8.13;66.55
40502;BME280;29631;49.168;9.848;2023-03-02T06:36:58;96684.50;;;8.19;66.30
40502;BME280;29631;49.168;9.848;2023-03-02T06:39:24;96660.09;;;8.04;66.03
40502;BME280;29631;49.168;9.848;2023-03-02T06:41:50;96675.97;;;8.17;66.66
40502;BME280;29631;49.168;9.848;2023-03-02T06:44:17;96662.94;;;8.09;66.69
40502;BME280;29631;49.168;9.848;2023-03-02T06:46:43;96683.09;;;8.23;66.30
40502;BME280;29631;49.168;9.848;2023-03-02T06:49:10;96674.59;;;8.21;66.12
40502;BME280;29631;49.168;9.848;2023-03-02T06:51:37;96670.97;;;8.22;66.52
40502;BME280;29631;49.168;9.848;2023-03-02T06:54:04;96681.75;;;8.27;66.69
40502;BME280;29631;49.168;9.848;2023-03-02T06:56:32;96700.47;;;8.45;66.53
40502;BME280;29631;49.168;9.848;2023-03-02T06:58:58;96703.50;;;8.48;66.41
40502;BME280;29631;49.168;9.848;2023-03-02T07:01:23;96695.81;;;8.47;66.21
40502;BME280;29631;49.168;9.848;2023-03-02T07:03:49;96686.94;;;8.48;66.93
40502;BME280;29631;49.168;9.848;2023-03-02T07:06:15;96704.19;;;8.57;66.90
40502;BME280;29631;49.168;9.848;2023-03-02T07:08:41;96701.16;;;8.60;66.23
40502;BME280;29631;49.168;9.848;2023-03-02T07:11:09;96693.28;;;8.60;66.92
40502;BME280;29631;49.168;9.848;2023-03-02T07:13:37;96705.69;;;8.66;66.76
40502;BME280;29631;49.168;9.848;2023-03-02T07:16:09;96699.38;;;8.66;66.70
40502;BME280;29631;49.168;9.848;2023-03-02T07:18:35;96702.66;;;8.68;66.05
40502;BME280;29631;49.168;9.848;2023-03-02T07:21:01;96713.44;;;8.80;66.80
40502;BME280;29631;49.168;9.848;2023-03-02T07:23:26;96727.88;;;8.90;66.68
40502;BME280;29631;49.168;9.848;2023-03-02T07:25:52;96703.97;;;8.85;66.51
40502;BME280;29631;49.168;9.848;2023-03-02T07:28:18;96700.59;;;8.91;66.76
40502;BME280;29631;49.168;9.848;2023-03-02T07:30:46;96705.06;;;8.97;66.56
40502;BME280;29631;49.168;9.848;2023-03-02T07:33:11;96714.63;;;9.11;66.43
40502;BME280;29631;49.168;9.848;2023-03-02T07:35:37;96726.63;;;9.20;67.26
40502;BME280;29631;49.168;9.848;2023-03-02T07:38:03;96717.50;;;9.16;67.43
40502;BME280;29631;49.168;9.848;2023-03-02T07:40:29;96708.63;;;9.24;67.37
40502;BME280;29631;49.168;9.848;2023-03-02T07:42:54;96710.69;;;9.28;66.81
40502;BME280;29631;49.168;9.848;2023-03-02T07:45:20;96718.03;;;9.39;67.40
40502;BME280;29631;49.168;9.848;2023-03-02T07:47:49;96705.50;;;9.41;66.75
40502;BME280;29631;49.168;9.848;2023-03-02T07:50:15;96714.44;;;9.53;67.69
40502;BME280;29631;49.168;9.848;2023-03-02T07:52:41;96726.22;;;9.70;66.47
40502;BME280;29631;49.168;9.848;2023-03-02T07:55:08;96725.66;;;9.74;66.66
40502;BME280;29631;49.168;9.848;2023-03-02T07:57:34;96714.94;;;9.82;66.61
40502;BME280;29631;49.168;9.848;2023-03-02T08:00:00;96696.31;;;9.77;67.22
40502;BME280;29631;49.168;9.848;2023-03-02T08:02:26;96727.94;;;9.97;67.59
40502;BME280;29631;49.168;9.848;2023-03-02T08:04:52;96714.56;;;9.92;67.07
40502;BME280;29631;49.168;9.848;2023-03-02T08:07:18;96712.38;;;10.02;66.88
40502;BME280;29631;49.168;9.848;2023-03-02T08:09:44;96720.72;;;10.12;67.18
40502;BME280;29631;49.168;9.848;2023-03-02T08:12:10;96725.38;;;10.22;67.41
40502;BME280;29631;49.168;9.848;2023-03-02T08:14:36;96712.63;;;10.19;67.78
40502;BME280;29631;49.168;9.848;2023-03-02T08:17:04;96706.13;;;10.28;67.80
40502;BME280;29631;49.168;9.848;2023-03-02T08:19:30;96721.75;;;10.43;67.85
40502;BME280;29631;49.168;9.848;2023-03-02T08:21:56;96713.44;;;10.46;67.14
40502;BME280;29631;49.168;9.848;2023-03-02T08:24:23;96709.41;;;10.56;68.10
40502;BME280;29631;49.168;9.848;2023-03-02T08:26:48;96717.09;;;10.64;67.99
40502;BME280;29631;49.168;9.848;2023-03-02T08:29:14;96718.09;;;10.70;68.12
40502;BME280;29631;49.168;9.848;2023-03-02T08:31:40;96710.19;;;10.76;68.14
40502;BME280;29631;49.168;9.848;2023-03-02T08:34:05;96706.13;;;10.80;68.07
40502;BME280;29631;49.168;9.848;2023-03-02T08:36:31;96705.72;;;10.83;67.76
40502;BME280;29631;49.168;9.848;2023-03-02T08:38:57;96711.00;;;10.96;68.17
40502;BME280;29631;49.168;9.848;2023-03-02T08:41:23;96707.34;;;10.97;67.69
40502;BME280;29631;49.168;9.848;2023-03-02T08:43:49;96711.75;;;11.09;67.85
40502;BME280;29631;49.168;9.848;2023-03-02T08:46:18;96709.91;;;11.23;68.23
40502;BME280;29631;49.168;9.848;2023-03-02T08:48:45;96701.97;;;11.36;68.07
40502;BME280;29631;49.168;9.848;2023-03-02T08:51:20;96691.34;;;11.49;68.46
40502;BME280;29631;49.168;9.848;2023-03-02T08:53:49;96696.75;;;12.10;67.60
40502;BME280;29631;49.168;9.848;2023-03-02T08:56:26;96702.09;;;13.25;66.08
40502;BME280;29631;49.168;9.848;2023-03-02T08:58:57;96689.94;;;14.30;65.12
40502;BME280;29631;49.168;9.848;2023-03-02T09:01:30;96680.56;;;15.14;63.28
40502;BME280;29631;49.168;9.848;2023-03-02T09:03:57;96682.50;;;15.53;62.84
40502;BME280;29631;49.168;9.848;2023-03-02T09:06:29;96700.84;;;16.05;62.78
40502;BME280;29631;49.168;9.848;2023-03-02T09:08:56;96694.69;;;16.60;62.52
40502;BME280;29631;49.168;9.848;2023-03-02T09:11:22;96697.78;;;17.23;61.49
40502;BME280;29631;49.168;9.848;2023-03-02T09:13:48;96689.22;;;17.53;61.73
40502;BME280;29631;49.168;9.848;2023-03-02T09:16:14;96699.16;;;17.79;61.68
40502;BME280;29631;49.168;9.848;2023-03-02T09:18:40;96690.38;;;18.05;61.78
40502;BME280;29631;49.168;9.848;2023-03-02T09:21:06;96685.34;;;18.30;61.21
40502;BME280;29631;49.168;9.848;2023-03-02T09:23:33;96688.84;;;18.62;61.46
40502;BME280;29631;49.168;9.848;2023-03-02T09:26:01;96682.19;;;18.95;61.42
40502;BME280;29631;49.168;9.848;2023-03-02T09:28:27;96680.09;;;19.39;61.09
40502;BME280;29631;49.168;9.848;2023-03-02T09:30:56;96688.56;;;19.72;60.39
40502;BME280;29631;49.168;9.848;2023-03-02T09:33:22;96686.81;;;19.97;60.83
40502;BME280;29631;49.168;9.848;2023-03-02T09:35:49;96694.47;;;20.45;60.15
40502;BME280;29631;49.168;9.848;2023-03-02T09:38:16;96689.97;;;20.85;59.31
40502;BME280;29631;49.168;9.848;2023-03-02T09:43:48;96704.81;;;22.00;58.94
40502;BME280;29631;49.168;9.848;2023-03-02T09:47:04;96677.53;;;22.75;58.26
40502;BME280;29631;49.168;9.848;2023-03-02T09:49:59;96701.53;;;23.61;56.37
40502;BME280;29631;49.168;9.848;2023-03-02T09:52:39;96694.34;;;23.52;57.37
40502;BME280;29631;49.168;9.848;2023-03-02T09:55:24;96688.56;;;22.73;57.65
40502;BME280;29631;49.168;9.848;2023-03-02T09:57:52;96692.41;;;22.09;58.53
40502;BME280;29631;49.168;9.848;2023-03-02T10:00:36;96684.56;;;21.30;59.59
40502;BME280;29631;49.168;9.848;2023-03-02T10:03:18;96696.38;;;20.74;59.77
40502;BME280;29631;49.168;9.848;2023-03-02T10:05:48;96684.75;;;20.24;60.73
40502;BME280;29631;49.168;9.848;2023-03-02T10:08:24;96693.47;;;19.90;60.84
40502;BME280;29631;49.168;9.848;2023-03-02T10:11:16;96697.00;;;19.49;61.63
40502;BME280;29631;49.168;9.848;2023-03-02T10:14:14;96693.28;;;19.14;61.70
40502;BME280;29631;49.168;9.848;2023-03-02T10:17:28;96686.56;;;18.75;62.29
40502;BME280;29631;49.168;9.848;2023-03-02T10:19:57;96671.94;;;18.51;62.30
40502;BME280;29631;49.168;9.848;2023-03-02T10:22:46;96643.91;;;18.01;62.46
40502;BME280;29631;49.168;9.848;2023-03-02T10:26:29;96670.41;;;18.08;62.74
40502;BME280;29631;49.168;9.848;2023-03-02T10:28:48;96682.88;;;18.02;62.69
40502;BME280;29631;49.168;9.848;2023-03-02T10:31:28;96676.81;;;17.85;63.28
40502;BME280;29631;49.168;9.848;2023-03-02T10:33:55;96683.16;;;17.79;62.97
40502;BME280;29631;49.168;9.848;2023-03-02T10:36:30;96683.56;;;17.71;63.54
40502;BME280;29631;49.168;9.848;2023-03-02T10:38:57;96676.78;;;17.64;63.56
40502;BME280;29631;49.168;9.848;2023-03-02T10:41:33;96664.97;;;17.55;63.32
40502;BME280;29631;49.168;9.848;2023-03-02T10:44:28;96680.72;;;17.56;63.48
40502;BME280;29631;49.168;9.848;2023-03-02T10:46:53;96667.25;;;17.47;63.92
40502;BME280;29631;49.168;9.848;2023-03-02T10:49:30;96682.25;;;17.52;63.10
40502;BME280;29631;49.168;9.848;2023-03-02T10:52:08;96686.97;;;17.46;63.73
40502;BME280;29631;49.168;9.848;2023-03-02T10:54:36;96666.47;;;17.30;63.96
40502;BME280;29631;49.168;9.848;2023-03-02T10:57:17;96664.13;;;17.33;63.42
40502;BME280;29631;49.168;9.848;2023-03-02T10:59:51;96676.16;;;17.36;64.18
40502;BME280;29631;49.168;9.848;2023-03-02T11:02:25;96674.38;;;17.41;64.43
40502;BME280;29631;49.168;9.848;2023-03-02T11:05:36;96679.44;;;17.43;64.30
40502;BME280;29631;49.168;9.848;2023-03-02T11:08:09;96668.25;;;17.41;64.44
40502;BME280;29631;49.168;9.848;2023-03-02T11:10:49;96647.41;;;17.38;64.39
40502;BME280;29631;49.168;9.848;2023-03-02T11:13:19;96655.97;;;17.40;64.02
40502;BME280;29631;49.168;9.848;2023-03-02T11:15:51;96658.38;;;17.41;64.65
40502;BME280;29631;49.168;9.848;2023-03-02T11:18:29;96653.31;;;17.40;64.23
40502;BME280;29631;49.168;9.848;2023-03-02T11:21:03;96655.25;;;17.44;64.56
40502;BME280;29631;49.168;9.848;2023-03-02T11:26:26;96658.59;;;17.56;63.99
40502;BME280;29631;49.168;9.848;2023-03-02T11:29:15;96642.75;;;17.49;64.37
40502;BME280;29631;49.168;9.848;2023-03-02T11:31:52;96649.75;;;17.55;64.59
40502;BME280;29631;49.168;9.848;2023-03-02T11:34:49;96659.75;;;17.65;63.68
40502;BME280;29631;49.168;9.848;2023-03-02T11:42:57;96653.09;;;17.67;64.88
40502;BME280;29631;49.168;9.848;2023-03-02T11:45:43;96657.47;;;17.73;64.54
40502;BME280;29631;49.168;9.848;2023-03-02T11:48:35;96644.66;;;17.75;64.55
40502;BME280;29631;49.168;9.848;2023-03-02T11:51:13;96645.81;;;17.79;64.50
40502;BME280;29631;49.168;9.848;2023-03-02T11:53:50;96642.66;;;17.87;64.73
40502;BME280;29631;49.168;9.848;2023-03-02T11:56:17;96623.16;;;17.82;64.96
40502;BME280;29631;49.168;9.848;2023-03-02T11:58:45;96605.09;;;17.67;64.48
40502;BME280;29631;49.168;9.848;2023-03-02T12:01:21;96648.44;;;18.01;64.55
40502;BME280;29631;49.168;9.848;2023-03-02T12:03:48;96628.88;;;17.95;64.36
40502;BME280;29631;49.168;9.848;2023-03-02T12:08:49;96629.06;;;18.10;64.83
40502;BME280;29631;49.168;9.848;2023-03-02T12:16:19;96628.13;;;18.21;64.06
40502;BME280;29631;49.168;9.848;2023-03-02T12:18:51;96619.06;;;18.22;64.31
40502;BME280;29631;49.168;9.848;2023-03-02T12:21:24;96622.53;;;18.22;64.37
40502;BME280;29631;49.168;9.848;2023-03-02T12:31:24;96619.44;;;18.35;64.65
40502;BME280;29631;49.168;9.848;2023-03-02T12:33:51;96619.72;;;18.39;64.22
40502;BME280;29631;49.168;9.848;2023-03-02T12:36:31;96605.78;;;18.32;64.00
40502;BME280;29631;49.168;9.848;2023-03-02T12:47:45;96623.13;;;18.61;64.43
40502;BME280;29631;49.168;9.848;2023-03-02T12:50:24;96619.16;;;18.63;64.52
40502;BME280;29631;49.168;9.848;2023-03-02T12:53:05;96613.03;;;18.68;64.59
40502;BME280;29631;49.168;9.848;2023-03-02T12:55:32;96613.09;;;18.78;64.18
40502;BME280;29631;49.168;9.848;2023-03-02T12:58:00;96602.97;;;18.80;64.08
40502;BME280;29631;49.168;9.848;2023-03-02T13:00:32;96607.56;;;18.84;64.39
40502;BME280;29631;49.168;9.848;2023-03-02T13:03:00;96590.78;;;18.93;64.63
40502;BME280;29631;49.168;9.848;2023-03-02T13:05:33;96600.44;;;18.99;63.98
40502;BME280;29631;49.168;9.848;2023-03-02T13:11:14;96596.28;;;19.13;64.20
40502;BME280;29631;49.168;9.848;2023-03-02T13:13:42;96606.50;;;19.26;64.00
40502;BME280;29631;49.168;9.848;2023-03-02T13:16:23;96594.22;;;19.30;64.14
40502;BME280;29631;49.168;9.848;2023-03-02T13:18:53;96596.13;;;19.40;64.70
40502;BME280;29631;49.168;9.848;2023-03-02T13:21:34;96589.44;;;19.42;64.04
40502;BME280;29631;49.168;9.848;2023-03-02T13:24:03;96582.03;;;19.64;64.77
40502;BME280;29631;49.168;9.848;2023-03-02T13:26:35;96595.06;;;20.32;63.74
40502;BME280;29631;49.168;9.848;2023-03-02T13:29:13;96582.19;;;20.73;62.93
40502;BME280;29631;49.168;9.848;2023-03-02T13:31:44;96595.03;;;21.11;62.05
40502;BME280;29631;49.168;9.848;2023-03-02T13:34:27;96597.13;;;21.29;62.40
40502;BME280;29631;49.168;9.848;2023-03-02T13:36:55;96550.00;;;20.98;62.41
40502;BME280;29631;49.168;9.848;2023-03-02T13:39:30;96577.84;;;21.27;62.14
40502;BME280;29631;49.168;9.848;2023-03-02T13:42:02;96593.31;;;21.50;62.27
40502;BME280;29631;49.168;9.848;2023-03-02T13:44:31;96576.09;;;21.66;62.10
40502;BME280;29631;49.168;9.848;2023-03-02T13:46:58;96580.72;;;22.03;61.89
40502;BME280;29631;49.168;9.848;2023-03-02T13:49:33;96588.53;;;22.43;61.13
40502;BME280;29631;49.168;9.848;2023-03-02T13:52:26;96587.69;;;22.76;60.38
40502;BME280;29631;49.168;9.848;2023-03-02T13:54:53;96583.94;;;22.77;60.71
40502;BME280;29631;49.168;9.848;2023-03-02T13:57:30;96575.25;;;22.85;60.53
40502;BME280;29631;49.168;9.848;2023-03-02T13:59:58;96568.13;;;22.99;60.46
40502;BME280;29631;49.168;9.848;2023-03-02T14:02:28;96585.97;;;23.18;59.79
40502;BME280;29631;49.168;9.848;2023-03-02T14:04:56;96579.81;;;23.18;59.90
40502;BME280;29631;49.168;9.848;2023-03-02T14:07:22;96575.28;;;23.13;60.03
40502;BME280;29631;49.168;9.848;2023-03-02T14:09:48;96575.09;;;23.05;60.23
40502;BME280;29631;49.168;9.848;2023-03-02T14:12:27;96588.25;;;23.06;59.87
40502;BME280;29631;49.168;9.848;2023-03-02T14:14:56;96564.97;;;22.92;60.29